createdAt,value
2023-04-16T00:02:41.346Z,66.81
2023-04-16T00:05:43.926Z,66.27
2023-04-16T00:08:46.252Z,65.87
2023-04-16T00:11:48.558Z,65.98
2023-04-16T00:14:50.855Z,66.52
2023-04-16T00:17:53.144Z,66.41
2023-04-16T00:20:55.531Z,67.26
2023-04-16T00:23:57.870Z,67.47
2023-04-16T00:27:00.150Z,67.33
2023-04-16T00:30:02.546Z,67.13
2023-04-16T00:33:04.869Z,66.63
2023-04-16T00:36:07.468Z,65.71
2023-04-16T00:39:09.876Z,65.68
2023-04-16T00:42:12.270Z,66.17
2023-04-16T00:45:14.742Z,65.85
2023-04-16T00:48:17.229Z,65.00
2023-04-16T00:51:21.422Z,66.21
2023-04-16T00:54:25.314Z,67.19
2023-04-16T00:57:28.000Z,67.71
2023-04-16T01:00:30.359Z,65.88
2023-04-16T01:03:52.939Z,66.16
2023-04-16T01:06:55.288Z,65.54
2023-04-16T01:09:57.833Z,65.34
2023-04-16T01:13:00.064Z,65.49
2023-04-16T01:16:02.483Z,64.83
2023-04-16T01:19:04.781Z,64.84
2023-04-16T01:22:07.171Z,65.60
2023-04-16T01:25:14.258Z,65.08
2023-04-16T01:28:16.601Z,65.37
2023-04-16T01:31:19.406Z,65.58
2023-04-16T01:34:36.506Z,66.12
2023-04-16T01:37:38.822Z,66.85
2023-04-16T01:40:41.052Z,65.84
2023-04-16T01:43:43.312Z,66.44
2023-04-16T01:46:45.618Z,67.96
2023-04-16T01:49:48.343Z,67.55
2023-04-16T01:52:50.600Z,68.38
2023-04-16T01:55:52.841Z,68.58
2023-04-16T01:58:55.102Z,67.68
2023-04-16T02:02:07.794Z,67.68
2023-04-16T02:05:10.281Z,67.47
2023-04-16T02:08:12.516Z,66.82
2023-04-16T02:11:15.024Z,67.02
2023-04-16T02:14:18.247Z,67.16
2023-04-16T02:17:20.857Z,66.74
2023-04-16T02:20:26.253Z,66.60
2023-04-16T02:23:32.887Z,67.02
2023-04-16T02:26:35.823Z,67.19
2023-04-16T02:29:43.424Z,66.45
2023-04-16T02:32:50.312Z,66.26
2023-04-16T02:35:53.236Z,65.79
2023-04-16T02:38:55.650Z,65.40
2023-04-16T02:41:58.022Z,65.84
2023-04-16T02:45:00.293Z,66.70
2023-04-16T02:48:02.721Z,67.46
2023-04-16T02:51:05.373Z,67.62
2023-04-16T02:54:07.744Z,67.81
2023-04-16T02:57:10.016Z,67.10
2023-04-16T03:00:12.852Z,67.11
2023-04-16T03:03:15.413Z,67.39
2023-04-16T03:06:17.702Z,66.65
2023-04-16T03:09:19.979Z,67.54
2023-04-16T03:12:22.224Z,67.89
2023-04-16T03:15:25.279Z,68.00
2023-04-16T03:18:27.471Z,67.95
2023-04-16T03:21:29.866Z,67.47
2023-04-16T03:24:34.039Z,66.92
2023-04-16T03:27:36.311Z,66.64
2023-04-16T03:30:38.656Z,66.79
2023-04-16T03:33:42.600Z,65.82
2023-04-16T03:36:45.573Z,68.07
2023-04-16T03:39:47.790Z,66.46
2023-04-16T03:42:50.624Z,67.21
2023-04-16T03:45:52.924Z,67.22
2023-04-16T03:48:58.522Z,66.19
2023-04-16T03:52:00.972Z,66.12
2023-04-16T03:55:04.095Z,66.34
2023-04-16T03:58:07.318Z,65.90
2023-04-16T04:01:09.548Z,66.19
2023-04-16T04:04:13.302Z,66.87
2023-04-16T04:07:16.555Z,67.38
2023-04-16T04:10:18.799Z,68.01
2023-04-16T04:13:21.157Z,67.59
2023-04-16T04:16:24.580Z,67.34
2023-04-16T04:19:26.940Z,68.36
2023-04-16T04:22:29.472Z,67.76
2023-04-16T04:25:32.035Z,68.15
2023-04-16T04:28:35.253Z,67.93
2023-04-16T04:31:37.698Z,67.21
2023-04-16T04:34:40.065Z,65.68
2023-04-16T04:37:44.077Z,65.99
2023-04-16T04:40:53.175Z,65.48
2023-04-16T04:43:56.937Z,65.63
2023-04-16T04:47:00.676Z,65.30
2023-04-16T04:50:03.177Z,65.34
2023-04-16T04:53:10.180Z,66.07
2023-04-16T04:56:13.377Z,66.15
2023-04-16T04:59:16.307Z,65.78
2023-04-16T05:02:19.473Z,65.99
2023-04-16T05:05:22.068Z,64.64
2023-04-16T05:08:24.386Z,65.42
2023-04-16T05:11:26.625Z,64.62
2023-04-16T05:14:28.965Z,64.69
2023-04-16T05:17:31.486Z,65.03
2023-04-16T05:20:33.815Z,63.74
2023-04-16T05:23:36.044Z,64.33
2023-04-16T05:26:38.328Z,64.49
2023-04-16T05:29:40.760Z,64.25
2023-04-16T05:32:43.109Z,64.12
2023-04-16T05:35:45.501Z,64.36
2023-04-16T05:38:47.739Z,64.68
2023-04-16T05:41:50.015Z,65.46
2023-04-16T05:44:52.829Z,65.18
2023-04-16T05:47:55.184Z,64.76
2023-04-16T05:50:57.577Z,64.46
2023-04-16T05:53:59.810Z,64.50
2023-04-16T05:57:02.358Z,63.54
2023-04-16T06:00:05.280Z,62.66
2023-04-16T06:03:14.286Z,63.00
2023-04-16T06:06:17.816Z,63.16
2023-04-16T06:09:20.072Z,64.37
2023-04-16T06:12:22.404Z,64.03
2023-04-16T06:15:24.614Z,65.42
2023-04-16T06:18:26.875Z,65.57
2023-04-16T06:21:29.558Z,65.60
2023-04-16T06:24:31.950Z,64.12
2023-04-16T06:27:34.217Z,63.64
2023-04-16T06:30:36.562Z,62.63
2023-04-16T06:33:38.810Z,62.66
2023-04-16T06:36:41.161Z,60.78
2023-04-16T06:39:43.464Z,60.54
2023-04-16T06:42:45.843Z,59.47
2023-04-16T06:45:48.125Z,59.81
2023-04-16T06:48:50.558Z,59.72
2023-04-16T06:51:52.863Z,59.73
2023-04-16T06:54:55.211Z,61.31
2023-04-16T06:57:57.430Z,60.96
2023-04-16T07:01:00.000Z,62.20
2023-04-16T07:04:02.625Z,61.92
2023-04-16T07:07:05.065Z,60.11
2023-04-16T07:10:08.315Z,57.64
2023-04-16T07:13:10.663Z,54.02
2023-04-16T07:16:12.935Z,51.88
2023-04-16T07:19:15.280Z,50.55
2023-04-16T07:22:17.707Z,48.61
2023-04-16T07:25:20.065Z,49.60
2023-04-16T07:28:22.337Z,50.26
2023-04-16T07:31:24.608Z,50.24
2023-04-16T07:34:26.910Z,50.73
2023-04-16T07:37:29.289Z,51.27
2023-04-16T07:40:31.588Z,51.74
2023-04-16T07:43:33.832Z,52.24
2023-04-16T07:46:45.543Z,53.39
2023-04-16T07:49:50.681Z,53.07
2023-04-16T07:52:53.771Z,55.34
2023-04-16T07:55:56.101Z,56.79
2023-04-16T07:59:02.847Z,58.29
2023-04-16T08:02:13.615Z,58.75
2023-04-16T08:05:16.093Z,60.23
2023-04-16T08:08:18.335Z,59.57
2023-04-16T08:11:20.721Z,56.77
2023-04-16T08:14:23.218Z,56.21
2023-04-16T08:17:25.532Z,54.44
2023-04-16T08:20:27.912Z,53.97
2023-04-16T08:23:30.253Z,53.70
2023-04-16T08:26:32.488Z,53.32
2023-04-16T08:29:34.731Z,51.32
2023-04-16T08:32:37.047Z,52.35
2023-04-16T08:35:39.388Z,53.04
2023-04-16T08:38:41.671Z,54.28
2023-04-16T08:41:46.664Z,55.27
2023-04-16T08:44:50.058Z,56.21
2023-04-16T08:47:52.925Z,57.21
2023-04-16T08:50:55.782Z,57.35
2023-04-16T08:54:12.540Z,57.34
2023-04-16T08:57:20.529Z,56.67
2023-04-16T09:00:23.216Z,56.74
2023-04-16T09:03:25.767Z,56.06
2023-04-16T09:06:28.477Z,55.99
2023-04-16T09:09:31.940Z,55.23
2023-04-16T09:12:35.802Z,55.76
2023-04-16T09:15:38.110Z,55.07
2023-04-16T09:18:41.263Z,55.56
2023-04-16T09:21:46.919Z,56.36
2023-04-16T09:24:49.198Z,56.15
2023-04-16T09:27:51.569Z,56.18
2023-04-16T09:31:08.337Z,56.07
2023-04-16T09:34:10.873Z,55.34
2023-04-16T09:37:17.312Z,54.42
2023-04-16T09:40:25.082Z,54.84
2023-04-16T09:43:27.340Z,54.70
2023-04-16T09:46:30.377Z,54.96
2023-04-16T09:49:34.818Z,55.07
2023-04-16T09:52:40.352Z,54.40
2023-04-16T09:55:42.657Z,54.22
2023-04-16T09:58:46.066Z,54.47
2023-04-16T10:02:12.277Z,54.17
2023-04-16T10:05:20.060Z,54.60
2023-04-16T10:08:24.080Z,53.74
2023-04-16T10:11:26.482Z,53.61
2023-04-16T10:14:28.758Z,53.68
2023-04-16T10:17:31.642Z,53.74
2023-04-16T10:20:33.760Z,52.93
2023-04-16T10:23:36.003Z,52.02
2023-04-16T10:26:39.291Z,52.66
2023-04-16T10:29:41.661Z,52.80
2023-04-16T10:32:44.974Z,52.24
2023-04-16T10:35:54.996Z,51.64
2023-04-16T10:39:12.182Z,51.95
2023-04-16T10:42:15.928Z,52.50
2023-04-16T10:45:21.478Z,51.26
2023-04-16T10:48:31.000Z,51.27
2023-04-16T10:51:41.476Z,51.53
2023-04-16T10:54:43.819Z,51.79
2023-04-16T10:57:49.719Z,51.36
2023-04-16T11:00:52.335Z,50.64
2023-04-16T11:03:54.889Z,49.65
2023-04-16T11:07:16.420Z,49.88
2023-04-16T11:10:18.938Z,50.13
2023-04-16T11:13:21.222Z,49.20
2023-04-16T11:16:25.483Z,47.46
2023-04-16T11:19:28.634Z,47.77
2023-04-16T11:22:38.728Z,48.61
2023-04-16T11:25:43.541Z,48.85
2023-04-16T11:28:45.981Z,45.96
2023-04-16T11:31:55.189Z,47.91
2023-04-16T11:34:57.636Z,48.37
2023-04-16T11:38:00.257Z,49.24
2023-04-16T11:41:03.165Z,47.95
2023-04-16T11:44:26.473Z,48.43
2023-04-16T11:47:30.571Z,49.46
2023-04-16T11:50:32.918Z,50.17
2023-04-16T11:53:36.618Z,49.41
2023-04-16T11:56:38.947Z,49.06
2023-04-16T12:00:02.473Z,48.74
2023-04-16T12:03:14.942Z,47.14
2023-04-16T12:06:17.386Z,47.02
2023-04-16T12:09:26.176Z,47.71
2023-04-16T12:12:31.463Z,47.81
2023-04-16T12:15:51.372Z,47.71
2023-04-16T12:19:04.190Z,46.33
2023-04-16T12:22:06.628Z,47.41
2023-04-16T12:25:16.720Z,46.91
2023-04-16T12:28:36.901Z,46.28
2023-04-16T12:31:39.244Z,45.44
2023-04-16T12:34:51.284Z,45.22
2023-04-16T12:37:53.539Z,45.43
2023-04-16T12:40:57.752Z,46.64
2023-04-16T12:44:16.609Z,45.63
2023-04-16T12:47:18.938Z,42.72
2023-04-16T12:50:21.610Z,42.27
2023-04-16T12:53:23.968Z,42.89
2023-04-16T12:56:26.476Z,42.67
2023-04-16T12:59:28.755Z,42.33
2023-04-16T13:02:32.263Z,42.75
2023-04-16T13:05:34.674Z,42.08
2023-04-16T13:08:37.526Z,43.05
2023-04-16T13:11:39.634Z,42.94
2023-04-16T13:14:43.371Z,41.60
2023-04-16T13:17:47.400Z,41.56
2023-04-16T13:20:49.881Z,42.75
2023-04-16T13:23:52.296Z,42.66
2023-04-16T13:26:56.308Z,44.42
2023-04-16T13:29:58.616Z,42.12
2023-04-16T13:33:00.927Z,41.51
2023-04-16T13:36:03.410Z,42.47
2023-04-16T13:39:10.689Z,43.28
2023-04-16T13:42:13.191Z,44.23
2023-04-16T13:45:15.460Z,44.23
2023-04-16T13:48:17.933Z,43.62
2023-04-16T13:51:20.288Z,42.44
2023-04-16T13:54:22.561Z,43.46
2023-04-16T13:57:24.978Z,42.90
2023-04-16T14:00:27.694Z,43.23
2023-04-16T14:03:30.097Z,42.95
2023-04-16T14:06:33.240Z,42.18
2023-04-16T14:09:35.730Z,43.23
2023-04-16T14:12:38.745Z,42.02
2023-04-16T14:15:41.082Z,42.71
2023-04-16T14:18:43.367Z,41.70
2023-04-16T14:21:45.793Z,41.92
2023-04-16T14:24:48.041Z,42.56
2023-04-16T14:27:50.375Z,43.09
2023-04-16T14:30:52.648Z,42.81
2023-04-16T14:33:54.989Z,43.21
2023-04-16T14:36:57.229Z,43.79
2023-04-16T14:40:00.069Z,44.71
2023-04-16T14:43:02.206Z,43.52
2023-04-16T14:46:06.551Z,44.53
2023-04-16T14:49:11.906Z,43.92
2023-04-16T14:52:14.614Z,43.03
2023-04-16T14:55:16.928Z,43.50
2023-04-16T14:58:19.252Z,42.89
2023-04-16T15:01:21.488Z,42.87
2023-04-16T15:04:24.713Z,42.31
2023-04-16T15:07:27.652Z,42.04
2023-04-16T15:10:29.881Z,42.17
2023-04-16T15:13:34.192Z,42.22
2023-04-16T15:16:36.874Z,41.85
2023-04-16T15:19:39.151Z,42.03
2023-04-16T15:22:41.477Z,42.06
2023-04-16T15:25:43.735Z,42.57
2023-04-16T15:28:46.197Z,41.78
2023-04-16T15:31:48.492Z,41.86
2023-04-16T15:34:50.989Z,41.08
2023-04-16T15:37:53.878Z,41.20
2023-04-16T15:40:58.353Z,39.77
2023-04-16T15:44:00.651Z,40.33
2023-04-16T15:47:03.042Z,40.47
2023-04-16T15:50:05.947Z,40.49
2023-04-16T15:53:08.061Z,40.87
2023-04-16T15:56:10.206Z,39.96
2023-04-16T15:59:12.926Z,40.46
2023-04-16T16:02:15.616Z,39.75
2023-04-16T16:05:18.976Z,39.84
2023-04-16T16:08:21.399Z,39.88
2023-04-16T16:11:23.666Z,39.46
2023-04-16T16:14:27.073Z,39.24
2023-04-16T16:17:29.783Z,40.02
2023-04-16T16:20:32.113Z,39.26
2023-04-16T16:23:34.685Z,40.26
2023-04-16T16:26:37.574Z,40.23
2023-04-16T16:29:39.829Z,40.32
2023-04-16T16:32:44.077Z,40.91
2023-04-16T16:35:46.366Z,40.10
2023-04-16T16:38:48.670Z,40.00
2023-04-16T16:41:52.613Z,39.74
2023-04-16T16:44:56.760Z,40.38
2023-04-16T16:47:59.901Z,40.50
2023-04-16T16:51:02.153Z,40.83
2023-04-16T16:54:04.575Z,40.67
2023-04-16T16:57:07.156Z,40.42
2023-04-16T17:00:14.406Z,41.16
2023-04-16T17:03:17.104Z,40.57
2023-04-16T17:06:21.105Z,40.95
2023-04-16T17:09:23.375Z,40.53
2023-04-16T17:12:26.247Z,40.91
2023-04-16T17:15:28.465Z,41.79
2023-04-16T17:18:30.739Z,42.43
2023-04-16T17:21:33.921Z,41.79
2023-04-16T17:24:36.254Z,42.05
2023-04-16T17:27:41.414Z,42.97
2023-04-16T17:30:43.890Z,42.57
2023-04-16T17:33:46.177Z,43.31
2023-04-16T17:36:50.478Z,43.67
2023-04-16T17:39:52.879Z,43.61
2023-04-16T17:42:55.122Z,43.76
2023-04-16T17:45:57.374Z,44.74
2023-04-16T17:48:59.683Z,44.22
2023-04-16T17:52:02.034Z,44.68
2023-04-16T17:55:07.772Z,44.60
2023-04-16T17:58:10.376Z,45.09
2023-04-16T18:01:12.723Z,45.34
2023-04-16T18:04:15.462Z,45.95
2023-04-16T18:07:18.060Z,46.32
2023-04-16T18:10:20.462Z,46.74
2023-04-16T18:13:24.045Z,47.37
2023-04-16T18:16:26.735Z,46.85
2023-04-16T18:19:29.097Z,47.35
2023-04-16T18:22:31.887Z,48.07
2023-04-16T18:25:35.175Z,48.19
2023-04-16T18:28:37.823Z,48.67
2023-04-16T18:31:40.177Z,48.67
2023-04-16T18:34:42.585Z,49.34
2023-04-16T18:37:47.952Z,49.46
2023-04-16T18:40:50.387Z,49.41
2023-04-16T18:43:52.701Z,50.42
2023-04-16T18:46:54.966Z,49.80
2023-04-16T18:49:57.309Z,50.55
2023-04-16T18:52:59.793Z,50.32
2023-04-16T18:56:02.127Z,50.86
2023-04-16T18:59:04.426Z,50.86
2023-04-16T19:02:07.274Z,50.37
2023-04-16T19:05:09.749Z,50.51
2023-04-16T19:08:12.074Z,50.96
2023-04-16T19:11:14.390Z,50.74
2023-04-16T19:14:16.642Z,50.42
2023-04-16T19:17:18.967Z,50.77
2023-04-16T19:20:21.360Z,50.72
2023-04-16T19:23:23.599Z,51.20
2023-04-16T19:26:27.036Z,51.26
2023-04-16T19:29:33.505Z,51.27
2023-04-16T19:32:36.471Z,51.92
2023-04-16T19:35:38.747Z,51.45
2023-04-16T19:38:41.172Z,50.77
2023-04-16T19:41:43.424Z,51.19
2023-04-16T19:44:45.678Z,50.68
2023-04-16T19:47:48.811Z,50.53
2023-04-16T19:50:51.239Z,50.67
2023-04-16T19:53:53.851Z,51.09
2023-04-16T19:56:57.067Z,50.69
2023-04-16T19:59:59.337Z,50.83
2023-04-16T20:03:02.250Z,50.54
2023-04-16T20:06:05.506Z,50.58
2023-04-16T20:09:07.765Z,50.96
2023-04-16T20:12:10.041Z,51.19
2023-04-16T20:15:12.325Z,50.88
2023-04-16T20:18:14.657Z,49.82
2023-04-16T20:21:16.902Z,49.80
2023-04-16T20:24:19.240Z,49.47
2023-04-16T20:27:21.748Z,49.94
2023-04-16T20:30:29.013Z,49.69
2023-04-16T20:33:31.446Z,49.35
2023-04-16T20:36:33.678Z,48.94
2023-04-16T20:39:40.126Z,49.93
2023-04-16T20:42:46.280Z,49.36
2023-04-16T20:45:50.035Z,49.11
2023-04-16T20:48:52.402Z,49.77
2023-04-16T20:51:54.698Z,49.94
2023-04-16T20:54:57.041Z,49.50
2023-04-16T20:57:59.446Z,49.14
2023-04-16T21:01:01.923Z,48.66
2023-04-16T21:04:04.445Z,49.11
2023-04-16T21:07:06.879Z,48.33
2023-04-16T21:10:10.576Z,48.33
2023-04-16T21:13:13.224Z,48.84
2023-04-16T21:16:15.615Z,48.47
2023-04-16T21:19:17.870Z,48.50
2023-04-16T21:22:20.161Z,48.63
2023-04-16T21:25:24.775Z,47.92
2023-04-16T21:28:27.036Z,48.65
2023-04-16T21:31:29.364Z,48.50
2023-04-16T21:34:31.608Z,47.22
2023-04-16T21:37:33.989Z,47.80
2023-04-16T21:40:36.255Z,47.82
2023-04-16T21:43:38.472Z,48.28
2023-04-16T21:46:40.821Z,48.25
2023-04-16T21:49:43.115Z,48.35
2023-04-16T21:52:46.310Z,48.67
2023-04-16T21:55:48.602Z,48.20
2023-04-16T21:58:51.089Z,48.21
2023-04-16T22:01:53.404Z,48.03
2023-04-16T22:04:55.727Z,48.23
2023-04-16T22:07:57.966Z,48.21
2023-04-16T22:11:01.912Z,47.78
2023-04-16T22:14:08.251Z,47.37
2023-04-16T22:17:11.099Z,47.77
2023-04-16T22:20:13.447Z,48.27
2023-04-16T22:23:15.861Z,47.59
2023-04-16T22:26:18.133Z,47.91
2023-04-16T22:29:20.445Z,48.12
2023-04-16T22:32:22.931Z,48.57
2023-04-16T22:35:25.399Z,48.14
2023-04-16T22:38:27.711Z,48.04
2023-04-16T22:41:29.991Z,47.93
2023-04-16T22:44:32.473Z,47.69
2023-04-16T22:47:34.842Z,48.29
2023-04-16T22:50:37.098Z,48.14
2023-04-16T22:53:39.374Z,48.07
2023-04-16T22:56:41.707Z,48.16
2023-04-16T22:59:43.972Z,48.04
2023-04-16T23:02:46.639Z,47.65
2023-04-16T23:05:49.205Z,48.00
2023-04-16T23:08:51.493Z,47.74
2023-04-16T23:11:53.707Z,47.90
2023-04-16T23:14:56.422Z,47.69
2023-04-16T23:17:58.822Z,47.51
2023-04-16T23:21:01.084Z,48.00
2023-04-16T23:24:03.462Z,48.18
2023-04-16T23:27:05.810Z,48.14
2023-04-16T23:30:08.782Z,48.54
2023-04-16T23:33:11.078Z,48.03
2023-04-16T23:36:13.232Z,47.91
2023-04-16T23:39:15.473Z,47.74
2023-04-16T23:42:18.117Z,47.27
2023-04-16T23:45:20.415Z,47.58
2023-04-16T23:48:22.725Z,47.49
2023-04-16T23:51:26.238Z,47.76
2023-04-16T23:54:28.570Z,47.96
2023-04-16T23:57:31.008Z,47.56
